createdAt,value
2022-09-23T00:01:11.546Z,1.58
2022-09-23T00:03:42.218Z,1.70
2022-09-23T00:06:11.502Z,1.65
2022-09-23T00:08:39.019Z,1.75
2022-09-23T00:11:12.658Z,1.48
2022-09-23T00:13:40.533Z,1.58
2022-09-23T00:16:10.681Z,1.80
2022-09-23T00:18:37.339Z,0.98
2022-09-23T00:21:09.530Z,1.48
2022-09-23T00:23:37.001Z,1.60
2022-09-23T00:26:07.063Z,2.00
2022-09-23T00:28:34.805Z,1.70
2022-09-23T00:31:07.777Z,1.70
2022-09-23T00:33:34.355Z,1.52
2022-09-23T00:36:06.566Z,1.50
2022-09-23T00:38:33.931Z,1.33
2022-09-23T00:41:00.912Z,1.45
2022-09-23T00:43:50.551Z,1.70
2022-09-23T00:46:29.906Z,1.60
2022-09-23T00:49:01.931Z,1.50
2022-09-23T00:51:35.125Z,2.10
2022-09-23T00:54:03.098Z,1.33
2022-09-23T00:56:31.568Z,1.30
2022-09-23T00:59:00.305Z,1.30
2022-09-23T01:01:27.259Z,1.67
2022-09-23T01:03:54.524Z,1.50
2022-09-23T01:06:21.830Z,1.40
2022-09-23T01:08:48.735Z,1.20
2022-09-23T01:11:24.591Z,3.75
2022-09-23T01:13:57.412Z,1.25
2022-09-23T01:16:47.899Z,1.40
2022-09-23T01:19:36.123Z,1.42
2022-09-23T01:22:33.051Z,1.42
2022-09-23T01:25:21.928Z,1.45
2022-09-23T01:28:04.402Z,1.48
2022-09-23T01:30:58.410Z,1.80
2022-09-23T01:33:28.218Z,1.08
2022-09-23T01:36:32.736Z,1.23
2022-09-23T01:39:24.567Z,1.55
2022-09-23T01:42:17.674Z,1.10
2022-09-23T01:44:52.990Z,1.40
2022-09-23T01:47:27.712Z,1.52
2022-09-23T01:50:03.276Z,1.55
2022-09-23T01:52:40.599Z,2.08
2022-09-23T01:55:11.136Z,1.92
2022-09-23T01:57:45.766Z,1.83
2022-09-23T02:00:15.583Z,1.50
2022-09-23T02:03:04.236Z,2.03
2022-09-23T02:05:37.790Z,1.52
2022-09-23T02:08:13.950Z,1.70
2022-09-23T02:10:52.427Z,2.70
2022-09-23T02:14:02.675Z,1.75
2022-09-23T02:16:36.088Z,2.20
2022-09-23T02:19:11.892Z,1.85
2022-09-23T02:21:47.253Z,1.55
2022-09-23T02:24:22.278Z,1.65
2022-09-23T02:26:58.486Z,2.08
2022-09-23T02:29:34.047Z,1.58
2022-09-23T02:32:12.933Z,1.50
2022-09-23T02:35:03.663Z,1.88
2022-09-23T02:37:43.779Z,1.70
2022-09-23T02:40:34.700Z,3.33
2022-09-23T02:43:13.027Z,1.70
2022-09-23T02:45:40.046Z,2.90
2022-09-23T02:48:18.266Z,1.90
2022-09-23T02:50:48.000Z,2.65
2022-09-23T02:53:18.405Z,1.60
2022-09-23T02:55:45.508Z,1.67
2022-09-23T02:58:13.999Z,1.83
2022-09-23T03:00:59.581Z,1.80
2022-09-23T03:03:54.070Z,3.40
2022-09-23T03:06:28.761Z,1.40
2022-09-23T03:09:08.799Z,1.63
2022-09-23T03:11:40.091Z,1.65
2022-09-23T03:14:25.851Z,1.30
2022-09-23T03:17:04.021Z,1.60
2022-09-23T03:19:42.604Z,1.52
2022-09-23T03:22:18.354Z,2.17
2022-09-23T03:24:50.662Z,1.60
2022-09-23T03:27:25.480Z,2.15
2022-09-23T03:29:54.440Z,1.55
2022-09-23T03:32:24.403Z,1.83
2022-09-23T03:34:54.168Z,1.70
2022-09-23T03:37:39.649Z,2.65
2022-09-23T03:40:16.423Z,1.90
2022-09-23T03:42:43.860Z,1.55
2022-09-23T03:45:18.775Z,2.10
2022-09-23T03:47:46.443Z,2.08
2022-09-23T03:50:13.815Z,2.08
2022-09-23T03:52:41.015Z,1.52
2022-09-23T03:55:08.861Z,2.05
2022-09-23T03:57:36.261Z,1.27
2022-09-23T04:00:05.341Z,1.40
2022-09-23T04:02:32.476Z,5.35
2022-09-23T04:04:59.580Z,1.85
2022-09-23T04:07:26.080Z,2.05
2022-09-23T04:09:53.354Z,1.95
2022-09-23T04:12:20.070Z,1.80
2022-09-23T04:14:46.974Z,1.83
2022-09-23T04:17:13.726Z,1.50
2022-09-23T04:19:41.013Z,1.75
2022-09-23T04:22:09.556Z,3.17
2022-09-23T04:24:36.082Z,2.17
2022-09-23T04:27:03.436Z,1.90
2022-09-23T04:29:29.945Z,1.30
2022-09-23T04:31:58.009Z,1.80
2022-09-23T04:34:24.587Z,1.67
2022-09-23T04:36:51.544Z,1.33
2022-09-23T04:39:18.660Z,1.90
2022-09-23T04:41:46.302Z,1.58
2022-09-23T04:44:14.395Z,1.42
2022-09-23T04:46:42.128Z,2.22
2022-09-23T04:49:09.007Z,1.67
2022-09-23T04:51:36.423Z,1.85
2022-09-23T04:54:03.385Z,3.13
2022-09-23T04:56:34.235Z,2.30
2022-09-23T04:59:02.072Z,3.33
2022-09-23T05:01:34.293Z,1.70
2022-09-23T05:04:05.527Z,1.50
2022-09-23T05:06:36.817Z,1.52
2022-09-23T05:09:06.936Z,1.70
2022-09-23T05:11:34.738Z,1.50
2022-09-23T05:14:01.652Z,1.95
2022-09-23T05:16:28.608Z,1.55
2022-09-23T05:18:55.263Z,1.98
2022-09-23T05:21:24.236Z,3.50
2022-09-23T05:23:59.150Z,3.05
2022-09-23T05:26:28.593Z,1.65
2022-09-23T05:28:56.383Z,2.10
2022-09-23T05:31:26.135Z,1.80
2022-09-23T05:33:57.554Z,1.75
2022-09-23T05:36:26.192Z,1.85
2022-09-23T05:38:52.913Z,2.03
2022-09-23T05:41:22.839Z,2.53
2022-09-23T05:43:52.014Z,1.92
2022-09-23T05:46:27.812Z,1.77
2022-09-23T05:49:01.149Z,1.70
2022-09-23T05:51:31.190Z,2.42
2022-09-23T05:53:59.484Z,2.35
2022-09-23T05:56:27.763Z,1.92
2022-09-23T05:58:56.946Z,2.15
2022-09-23T06:01:25.922Z,2.08
2022-09-23T06:03:57.550Z,1.52
2022-09-23T06:06:39.600Z,1.80
2022-09-23T06:09:07.696Z,1.88
2022-09-23T06:11:36.043Z,1.98
2022-09-23T06:14:03.267Z,2.15
2022-09-23T06:16:32.856Z,2.00
2022-09-23T06:19:06.269Z,1.73
2022-09-23T06:21:38.542Z,1.65
2022-09-23T06:24:07.068Z,1.88
2022-09-23T06:26:35.072Z,2.67
2022-09-23T06:29:02.726Z,2.00
2022-09-23T06:31:30.174Z,1.60
2022-09-23T06:34:07.612Z,1.70
2022-09-23T06:36:43.769Z,1.70
2022-09-23T06:39:12.193Z,1.80
2022-09-23T06:41:39.201Z,1.80
2022-09-23T06:44:05.934Z,2.78
2022-09-23T06:46:32.577Z,2.00
2022-09-23T06:48:59.205Z,2.60
2022-09-23T06:51:26.121Z,1.85
2022-09-23T06:53:53.231Z,1.73
2022-09-23T06:56:21.880Z,2.58
2022-09-23T06:58:48.686Z,1.30
2022-09-23T07:01:17.376Z,1.83
2022-09-23T07:03:47.191Z,1.52
2022-09-23T07:06:14.190Z,1.40
2022-09-23T07:08:44.730Z,1.60
2022-09-23T07:11:12.994Z,1.55
2022-09-23T07:13:41.150Z,1.40
2022-09-23T07:16:08.262Z,1.42
2022-09-23T07:18:37.180Z,1.70
2022-09-23T07:21:09.755Z,1.40
2022-09-23T07:23:37.611Z,1.83
2022-09-23T07:26:04.962Z,1.70
2022-09-23T07:28:32.126Z,1.55
2022-09-23T07:31:07.602Z,1.77
2022-09-23T07:33:36.463Z,1.50
2022-09-23T07:36:12.866Z,1.85
2022-09-23T07:38:44.940Z,2.00
2022-09-23T07:41:17.690Z,1.50
2022-09-23T07:43:45.268Z,1.58
2022-09-23T07:46:16.636Z,1.95
2022-09-23T07:48:44.982Z,2.10
2022-09-23T07:51:25.358Z,2.03
2022-09-23T07:53:53.954Z,2.35
2022-09-23T07:56:24.071Z,1.50
2022-09-23T07:59:00.609Z,1.30
2022-09-23T08:01:35.879Z,1.50
2022-09-23T08:04:24.899Z,3.80
2022-09-23T08:07:01.247Z,1.50
2022-09-23T08:09:31.847Z,1.70
2022-09-23T08:11:58.942Z,1.70
2022-09-23T08:14:25.994Z,1.73
2022-09-23T08:16:53.979Z,2.05
2022-09-23T08:19:21.515Z,1.70
2022-09-23T08:21:48.130Z,1.58
2022-09-23T08:24:19.272Z,1.50
2022-09-23T08:26:47.525Z,1.50
2022-09-23T08:29:15.771Z,2.17
2022-09-23T08:31:42.745Z,2.95
2022-09-23T08:34:09.308Z,1.80
2022-09-23T08:36:36.394Z,1.55
2022-09-23T08:39:04.486Z,1.35
2022-09-23T08:42:07.440Z,1.52
2022-09-23T08:44:57.151Z,2.58
2022-09-23T08:47:28.275Z,1.55
2022-09-23T08:50:00.570Z,1.63
2022-09-23T08:52:42.900Z,1.52
2022-09-23T08:55:13.573Z,1.50
2022-09-23T08:58:24.602Z,1.67
2022-09-23T09:01:24.179Z,1.67
2022-09-23T09:03:54.311Z,2.05
2022-09-23T09:06:45.586Z,1.67
2022-09-23T09:09:45.806Z,2.40
2022-09-23T09:12:32.509Z,1.77
2022-09-23T09:15:06.855Z,2.15
2022-09-23T09:18:03.241Z,1.77
2022-09-23T09:20:57.649Z,2.45
2022-09-23T09:23:51.366Z,2.58
2022-09-23T09:26:24.760Z,1.45
2022-09-23T09:29:34.885Z,1.40
2022-09-23T09:32:15.035Z,1.60
2022-09-23T09:34:53.958Z,1.65
2022-09-23T09:37:31.652Z,1.85
2022-09-23T09:39:58.763Z,1.40
2022-09-23T09:42:40.286Z,1.60
2022-09-23T09:45:20.161Z,1.38
2022-09-23T09:48:20.562Z,1.60
2022-09-23T09:50:49.014Z,1.33
2022-09-23T09:53:20.947Z,2.03
2022-09-23T09:56:02.236Z,1.67
2022-09-23T09:58:51.948Z,1.90
2022-09-23T10:01:31.246Z,1.60
2022-09-23T10:04:06.746Z,1.50
2022-09-23T10:06:35.819Z,1.90
2022-09-23T10:09:10.922Z,1.40
2022-09-23T10:11:38.716Z,1.40
2022-09-23T10:14:19.576Z,1.17
2022-09-23T10:17:02.153Z,1.67
2022-09-23T10:19:29.531Z,1.38
2022-09-23T10:22:00.207Z,2.05
2022-09-23T10:24:30.513Z,1.50
2022-09-23T10:27:02.169Z,1.30
2022-09-23T10:29:48.320Z,1.38
2022-09-23T10:32:22.855Z,1.50
2022-09-23T10:34:53.888Z,1.83
2022-09-23T10:37:41.596Z,1.42
2022-09-23T10:40:58.239Z,1.88
2022-09-23T10:44:04.187Z,1.85
2022-09-23T10:46:46.252Z,0.90
2022-09-23T10:49:40.909Z,1.50
2022-09-23T10:52:44.788Z,1.10
2022-09-23T10:55:28.010Z,2.00
2022-09-23T10:58:23.661Z,1.38
2022-09-23T11:01:13.285Z,1.50
2022-09-23T11:04:02.033Z,3.70
2022-09-23T11:06:46.695Z,1.33
2022-09-23T11:09:40.518Z,1.30
2022-09-23T11:12:44.988Z,1.35
2022-09-23T11:15:31.032Z,1.38
2022-09-23T11:18:19.565Z,1.35
2022-09-23T11:21:04.569Z,3.67
2022-09-23T11:23:51.826Z,2.15
2022-09-23T11:26:41.259Z,1.35
2022-09-23T11:29:44.309Z,3.03
2022-09-23T11:32:51.173Z,1.27
2022-09-23T11:35:27.265Z,1.30
2022-09-23T11:38:08.198Z,1.17
2022-09-23T11:40:45.492Z,1.45
2022-09-23T11:43:23.387Z,1.27
2022-09-23T11:45:58.597Z,1.45
2022-09-23T11:48:41.586Z,1.60
2022-09-23T11:51:21.846Z,2.15
2022-09-23T11:54:17.275Z,1.08
2022-09-23T11:56:53.608Z,1.50
2022-09-23T11:59:46.502Z,1.92
2022-09-23T12:02:58.922Z,1.42
2022-09-23T12:05:39.666Z,1.50
2022-09-23T12:08:33.640Z,1.30
2022-09-23T12:11:26.988Z,1.13
2022-09-23T12:14:14.104Z,1.40
2022-09-23T12:16:43.780Z,1.10
2022-09-23T12:19:39.494Z,1.25
2022-09-23T12:22:33.923Z,1.23
2022-09-23T12:25:10.260Z,1.35
2022-09-23T12:27:45.622Z,1.00
2022-09-23T12:30:21.686Z,2.80
2022-09-23T12:32:49.371Z,1.55
2022-09-23T12:35:26.572Z,1.50
2022-09-23T12:37:53.550Z,2.65
2022-09-23T12:40:20.461Z,1.40
2022-09-23T12:42:48.699Z,1.40
2022-09-23T12:45:33.073Z,1.45
2022-09-23T12:48:04.357Z,1.90
2022-09-23T12:50:49.000Z,1.50
2022-09-23T12:53:33.797Z,2.30
2022-09-23T12:56:20.998Z,1.55
2022-09-23T12:58:48.317Z,2.25
2022-09-23T13:01:14.914Z,1.45
2022-09-23T13:04:05.713Z,1.70
2022-09-23T13:06:41.061Z,2.17
2022-09-23T13:09:35.458Z,1.30
2022-09-23T13:12:06.187Z,1.73
2022-09-23T13:14:34.029Z,3.20
2022-09-23T13:17:01.438Z,1.30
2022-09-23T13:19:27.920Z,1.42
2022-09-23T13:21:54.426Z,1.27
2022-09-23T13:24:29.825Z,1.27
2022-09-23T13:27:13.274Z,2.47
2022-09-23T13:30:08.012Z,1.30
2022-09-23T13:32:49.558Z,1.33
2022-09-23T13:35:37.760Z,1.40
2022-09-23T13:38:25.853Z,1.35
2022-09-23T13:41:13.478Z,2.10
2022-09-23T13:43:42.511Z,2.50
2022-09-23T13:46:21.792Z,1.45
2022-09-23T13:48:51.400Z,3.60
2022-09-23T13:51:25.094Z,1.73
2022-09-23T13:53:56.734Z,1.30
2022-09-23T13:56:25.747Z,1.35
2022-09-23T13:58:53.032Z,1.63
2022-09-23T14:01:30.878Z,1.27
2022-09-23T14:03:58.480Z,1.58
2022-09-23T14:06:27.223Z,1.40
2022-09-23T14:08:54.631Z,1.40
2022-09-23T14:11:29.254Z,1.33
2022-09-23T14:13:57.815Z,1.45
2022-09-23T14:16:26.691Z,1.92
2022-09-23T14:18:59.054Z,1.67
2022-09-23T14:21:29.835Z,1.30
2022-09-23T14:23:56.913Z,1.33
2022-09-23T14:26:25.017Z,1.95
2022-09-23T14:28:52.147Z,2.28
2022-09-23T14:31:19.263Z,1.60
2022-09-23T14:33:46.793Z,1.75
2022-09-23T14:36:37.256Z,1.67
2022-09-23T14:39:12.130Z,1.40
2022-09-23T14:41:42.967Z,1.20
2022-09-23T14:44:22.860Z,1.40
2022-09-23T14:46:57.006Z,1.40
2022-09-23T14:49:24.793Z,1.50
2022-09-23T14:51:56.788Z,1.50
2022-09-23T14:54:45.662Z,2.40
2022-09-23T14:57:28.187Z,2.00
2022-09-23T15:00:14.230Z,2.03
2022-09-23T15:02:57.018Z,1.67
2022-09-23T15:05:39.370Z,1.48
2022-09-23T15:08:06.704Z,1.60
2022-09-23T15:10:38.873Z,1.80
2022-09-23T15:13:18.356Z,1.50
2022-09-23T15:15:45.776Z,1.60
2022-09-23T15:18:17.204Z,1.63
2022-09-23T15:20:53.735Z,1.70
2022-09-23T15:23:45.250Z,1.60
2022-09-23T15:26:16.774Z,1.42
2022-09-23T15:28:44.080Z,1.88
2022-09-23T15:31:16.604Z,1.55
2022-09-23T15:33:50.783Z,1.73
2022-09-23T15:36:28.729Z,1.65
2022-09-23T15:38:59.133Z,1.48
2022-09-23T15:41:25.660Z,1.63
2022-09-23T15:43:52.155Z,1.40
2022-09-23T15:46:29.821Z,1.40
2022-09-23T15:49:04.916Z,1.58
2022-09-23T15:51:32.288Z,1.50
2022-09-23T15:53:58.799Z,1.50
2022-09-23T15:56:27.345Z,1.48
2022-09-23T15:58:54.021Z,1.50
2022-09-23T16:01:28.416Z,1.55
2022-09-23T16:03:56.006Z,1.63
2022-09-23T16:06:24.185Z,1.67
2022-09-23T16:08:52.489Z,1.60
2022-09-23T16:11:22.884Z,1.60
2022-09-23T16:13:49.807Z,2.05
2022-09-23T16:16:17.121Z,2.55
2022-09-23T16:18:43.844Z,3.20
2022-09-23T16:21:12.991Z,4.40
2022-09-23T16:23:43.536Z,5.63
2022-09-23T16:26:25.895Z,7.00
2022-09-23T16:28:54.911Z,9.32
2022-09-23T16:31:25.235Z,10.43
2022-09-23T16:33:53.781Z,11.48
2022-09-23T16:36:22.461Z,14.40
2022-09-23T16:38:49.721Z,17.77
2022-09-23T16:41:16.655Z,14.85
2022-09-23T16:43:43.551Z,16.67
2022-09-23T16:46:15.200Z,15.60
2022-09-23T16:48:45.930Z,17.13
2022-09-23T16:51:20.284Z,17.73
2022-09-23T16:53:51.388Z,14.77
2022-09-23T16:56:24.264Z,15.50
2022-09-23T16:58:54.893Z,11.80
2022-09-23T17:01:43.047Z,10.32
2022-09-23T17:04:10.498Z,9.23
2022-09-23T17:06:46.630Z,9.30
2022-09-23T17:09:13.151Z,9.15
2022-09-23T17:11:40.466Z,7.88
2022-09-23T17:14:07.390Z,6.95
2022-09-23T17:16:35.384Z,6.25
2022-09-23T17:19:13.611Z,6.57
2022-09-23T17:21:40.204Z,7.10
2022-09-23T17:24:07.745Z,6.45
2022-09-23T17:26:34.694Z,6.50
2022-09-23T17:29:02.388Z,5.80
2022-09-23T17:31:29.091Z,7.32
2022-09-23T17:33:56.005Z,5.40
2022-09-23T17:36:22.582Z,6.70
2022-09-23T17:38:55.662Z,6.00
2022-09-23T17:41:22.472Z,5.45
2022-09-23T17:43:56.544Z,5.65
2022-09-23T17:46:24.121Z,5.68
2022-09-23T17:48:55.433Z,5.78
2022-09-23T17:51:22.571Z,5.07
2022-09-23T17:53:50.569Z,6.38
2022-09-23T17:56:19.632Z,5.68
2022-09-23T17:58:48.046Z,6.03
2022-09-23T18:01:23.027Z,6.28
2022-09-23T18:03:55.149Z,6.25
2022-09-23T18:06:23.467Z,5.65
2022-09-23T18:08:52.330Z,5.50
2022-09-23T18:11:24.729Z,6.10
2022-09-23T18:14:03.601Z,7.93
2022-09-23T18:16:39.820Z,7.53
2022-09-23T18:19:10.363Z,10.13
2022-09-23T18:21:40.484Z,13.70
2022-09-23T18:24:31.306Z,14.43
2022-09-23T18:26:59.333Z,15.02
2022-09-23T18:29:26.060Z,11.88
2022-09-23T18:31:52.595Z,12.57
2022-09-23T18:34:20.144Z,14.30
2022-09-23T18:36:47.153Z,15.40
2022-09-23T18:39:14.238Z,15.60
2022-09-23T18:41:41.674Z,14.77
2022-09-23T18:44:08.758Z,13.05
2022-09-23T18:46:35.994Z,14.25
2022-09-23T18:49:21.165Z,14.20
2022-09-23T18:52:06.111Z,12.82
2022-09-23T18:54:32.664Z,10.32
2022-09-23T18:56:59.400Z,10.00
2022-09-23T18:59:29.617Z,9.55
2022-09-23T19:01:57.686Z,9.32
2022-09-23T19:04:25.838Z,8.45
2022-09-23T19:06:53.840Z,7.88
2022-09-23T19:09:21.383Z,8.50
2022-09-23T19:11:53.062Z,7.60
2022-09-23T19:14:19.868Z,8.43
2022-09-23T19:16:49.477Z,8.27
2022-09-23T19:19:16.003Z,9.93
2022-09-23T19:21:42.490Z,10.07
2022-09-23T19:24:14.668Z,9.35
2022-09-23T19:26:42.554Z,8.25
2022-09-23T19:29:13.836Z,8.02
2022-09-23T19:31:42.028Z,8.25
2022-09-23T19:34:13.993Z,7.82
2022-09-23T19:36:43.474Z,8.57
2022-09-23T19:39:25.713Z,8.82
2022-09-23T19:41:55.778Z,7.78
2022-09-23T19:44:24.382Z,7.47
2022-09-23T19:46:55.967Z,7.20
2022-09-23T19:49:25.072Z,6.80
2022-09-23T19:51:56.218Z,6.47
2022-09-23T19:54:23.134Z,7.95
2022-09-23T19:56:50.255Z,7.03
2022-09-23T19:59:19.133Z,6.88
2022-09-23T20:01:47.366Z,6.70
2022-09-23T20:04:16.087Z,6.75
2022-09-23T20:06:43.250Z,6.43
2022-09-23T20:09:09.891Z,7.18
2022-09-23T20:11:36.888Z,6.45
2022-09-23T20:14:05.759Z,5.13
2022-09-23T20:16:36.332Z,5.65
2022-09-23T20:19:04.445Z,5.10
2022-09-23T20:21:32.775Z,5.80
2022-09-23T20:23:59.526Z,5.70
2022-09-23T20:26:45.115Z,5.72
2022-09-23T20:29:12.246Z,5.95
2022-09-23T20:31:41.217Z,5.55
2022-09-23T20:34:10.981Z,5.50
2022-09-23T20:36:39.427Z,6.60
2022-09-23T20:39:06.428Z,6.43
2022-09-23T20:41:38.183Z,6.38
2022-09-23T20:44:07.906Z,6.28
2022-09-23T20:46:36.131Z,6.95
2022-09-23T20:49:04.186Z,7.57
2022-09-23T20:51:33.108Z,7.38
2022-09-23T20:54:00.361Z,7.13
2022-09-23T20:56:27.469Z,6.13
2022-09-23T20:58:54.435Z,4.93
2022-09-23T21:01:22.322Z,5.32
2022-09-23T21:03:51.814Z,5.10
2022-09-23T21:06:19.886Z,5.15
2022-09-23T21:08:47.076Z,5.50
2022-09-23T21:11:16.394Z,5.63
2022-09-23T21:13:51.021Z,5.57
2022-09-23T21:16:22.342Z,4.57
2022-09-23T21:18:50.697Z,4.72
2022-09-23T21:21:19.374Z,4.28
2022-09-23T21:23:47.550Z,4.20
2022-09-23T21:26:17.697Z,4.63
2022-09-23T21:28:47.422Z,4.05
2022-09-23T21:31:23.247Z,4.40
2022-09-23T21:34:01.367Z,5.35
2022-09-23T21:36:30.110Z,4.97
2022-09-23T21:38:58.299Z,4.72
2022-09-23T21:41:25.438Z,4.00
2022-09-23T21:43:52.438Z,5.18
2022-09-23T21:46:20.371Z,5.13
2022-09-23T21:48:53.905Z,4.45
2022-09-23T21:51:25.800Z,5.05
2022-09-23T21:53:55.240Z,4.93
2022-09-23T21:56:27.744Z,5.65
2022-09-23T21:58:55.506Z,5.50
2022-09-23T22:01:24.929Z,5.70
2022-09-23T22:04:01.553Z,5.97
2022-09-23T22:06:29.280Z,4.82
2022-09-23T22:08:59.515Z,5.32
2022-09-23T22:11:50.349Z,5.68
2022-09-23T22:14:19.963Z,5.53
2022-09-23T22:16:46.555Z,6.05
2022-09-23T22:19:14.671Z,5.22
2022-09-23T22:21:43.755Z,4.90
2022-09-23T22:24:11.784Z,5.78
2022-09-23T22:26:43.336Z,6.20
2022-09-23T22:29:30.850Z,5.20
2022-09-23T22:32:17.059Z,5.80
2022-09-23T22:34:50.669Z,5.53
2022-09-23T22:37:21.351Z,5.43
2022-09-23T22:39:47.878Z,4.70
2022-09-23T22:42:14.944Z,5.18
2022-09-23T22:44:41.698Z,5.30
2022-09-23T22:47:09.744Z,5.03
2022-09-23T22:49:36.471Z,5.22
2022-09-23T22:52:04.371Z,4.60
2022-09-23T22:54:33.906Z,4.93
2022-09-23T22:57:03.830Z,4.43
2022-09-23T22:59:30.796Z,4.55
2022-09-23T23:02:00.291Z,4.30
2022-09-23T23:04:27.856Z,4.53
2022-09-23T23:06:54.788Z,3.78
2022-09-23T23:09:21.297Z,5.85
2022-09-23T23:11:48.255Z,4.30
2022-09-23T23:14:16.952Z,4.20
2022-09-23T23:16:45.460Z,4.10
2022-09-23T23:19:14.074Z,4.53
2022-09-23T23:21:45.083Z,4.22
2022-09-23T23:24:23.033Z,4.57
2022-09-23T23:26:50.455Z,5.07
2022-09-23T23:29:19.687Z,4.90
2022-09-23T23:31:47.322Z,3.90
2022-09-23T23:34:16.405Z,4.35
2022-09-23T23:36:44.481Z,4.30
2022-09-23T23:39:12.357Z,4.55
2022-09-23T23:41:42.784Z,4.18
2022-09-23T23:44:12.131Z,3.83
2022-09-23T23:46:38.707Z,4.00
2022-09-23T23:49:07.081Z,4.03
2022-09-23T23:51:34.024Z,3.95
2022-09-23T23:54:00.843Z,3.78
2022-09-23T23:56:30.009Z,3.97
2022-09-23T23:59:03.414Z,4.03
